createdAt,value
2022-08-30T00:02:01.779Z,60.87
2022-08-30T00:04:28.156Z,60.59
2022-08-30T00:06:54.590Z,60.58
2022-08-30T00:09:20.927Z,60.98
2022-08-30T00:14:13.614Z,61.93
2022-08-30T00:16:39.966Z,61.31
2022-08-30T00:21:32.717Z,61.59
2022-08-30T00:23:59.065Z,62.26
2022-08-30T00:26:25.438Z,62.68
2022-08-30T00:28:51.831Z,62.52
2022-08-30T00:31:18.477Z,61.81
2022-08-30T00:33:44.943Z,62.04
2022-08-30T00:36:11.525Z,61.34
2022-08-30T00:38:37.862Z,61.39
2022-08-30T00:41:04.281Z,61.52
2022-08-30T00:43:34.034Z,61.24
2022-08-30T00:46:04.458Z,60.79
2022-08-30T00:48:32.256Z,60.74
2022-08-30T00:51:03.474Z,61.04
2022-08-30T00:53:37.305Z,60.88
2022-08-30T00:56:05.009Z,61.53
2022-08-30T00:58:37.015Z,61.13
2022-08-30T01:01:05.756Z,61.57
2022-08-30T01:03:33.345Z,61.02
2022-08-30T01:06:00.808Z,60.88
2022-08-30T01:08:27.204Z,61.07
2022-08-30T01:10:55.583Z,60.53
2022-08-30T01:13:23.784Z,61.23
2022-08-30T01:15:50.889Z,60.97
2022-08-30T01:18:18.808Z,61.32
2022-08-30T01:21:07.339Z,61.66
2022-08-30T01:23:36.922Z,61.74
2022-08-30T01:26:05.976Z,61.79
2022-08-30T01:28:34.153Z,61.08
2022-08-30T01:31:01.610Z,61.80
2022-08-30T01:33:28.093Z,61.68
2022-08-30T01:35:58.019Z,61.49
2022-08-30T01:38:32.828Z,61.74
2022-08-30T01:41:35.421Z,61.46
2022-08-30T01:44:05.477Z,61.15
2022-08-30T01:46:36.051Z,61.30
2022-08-30T01:49:05.788Z,62.17
2022-08-30T01:51:32.160Z,62.20
2022-08-30T01:53:59.381Z,62.20
2022-08-30T01:56:27.848Z,62.01
2022-08-30T01:58:59.208Z,62.14
2022-08-30T02:01:29.907Z,62.35
2022-08-30T02:03:58.883Z,62.72
2022-08-30T02:06:26.003Z,62.62
2022-08-30T02:08:52.612Z,62.73
2022-08-30T02:11:19.122Z,62.23
2022-08-30T02:13:46.193Z,63.04
2022-08-30T02:16:16.477Z,62.75
2022-08-30T02:18:43.373Z,62.65
2022-08-30T02:21:10.300Z,62.78
2022-08-30T02:23:37.089Z,63.29
2022-08-30T02:26:04.435Z,63.49
2022-08-30T02:28:30.876Z,64.24
2022-08-30T02:30:57.567Z,63.93
2022-08-30T02:33:24.017Z,63.04
2022-08-30T02:35:50.416Z,63.21
2022-08-30T02:38:20.046Z,63.32
2022-08-30T02:40:46.733Z,63.07
2022-08-30T02:43:13.198Z,63.35
2022-08-30T02:45:39.664Z,63.19
2022-08-30T02:48:06.098Z,63.43
2022-08-30T02:50:32.625Z,63.78
2022-08-30T02:52:59.014Z,62.71
2022-08-30T02:55:25.486Z,63.36
2022-08-30T02:57:51.891Z,63.43
2022-08-30T03:00:20.595Z,63.74
2022-08-30T03:02:47.125Z,63.75
2022-08-30T03:05:14.765Z,64.00
2022-08-30T03:07:41.956Z,64.35
2022-08-30T03:10:09.217Z,64.54
2022-08-30T03:12:35.928Z,65.09
2022-08-30T03:15:02.438Z,65.52
2022-08-30T03:17:31.667Z,65.52
2022-08-30T03:20:00.279Z,65.33
2022-08-30T03:22:26.660Z,64.98
2022-08-30T03:24:53.015Z,64.96
2022-08-30T03:27:19.343Z,65.15
2022-08-30T03:29:45.693Z,64.61
2022-08-30T03:32:12.058Z,65.77
2022-08-30T03:34:38.405Z,65.22
2022-08-30T03:37:04.831Z,65.48
2022-08-30T03:39:31.838Z,64.93
2022-08-30T03:41:58.189Z,65.24
2022-08-30T03:44:25.754Z,64.94
2022-08-30T03:46:52.647Z,65.65
2022-08-30T03:49:19.658Z,65.16
2022-08-30T03:51:47.317Z,65.00
2022-08-30T03:54:14.563Z,64.83
2022-08-30T03:56:41.007Z,64.96
2022-08-30T03:59:07.349Z,64.45
2022-08-30T04:01:33.957Z,64.77
2022-08-30T04:04:00.363Z,64.55
2022-08-30T04:06:28.356Z,64.30
2022-08-30T04:08:55.042Z,64.37
2022-08-30T04:11:21.493Z,64.83
2022-08-30T04:13:49.610Z,64.48
2022-08-30T04:16:17.175Z,64.09
2022-08-30T04:18:43.593Z,64.31
2022-08-30T04:21:13.987Z,64.10
2022-08-30T04:23:40.630Z,64.55
2022-08-30T04:26:07.074Z,64.40
2022-08-30T04:28:35.116Z,64.54
2022-08-30T04:31:11.719Z,64.52
2022-08-30T04:33:38.661Z,64.50
2022-08-30T04:36:07.232Z,65.07
2022-08-30T04:38:35.483Z,64.83
2022-08-30T04:41:02.473Z,64.93
2022-08-30T04:43:29.031Z,64.73
2022-08-30T04:45:57.838Z,64.24
2022-08-30T04:48:24.197Z,64.50
2022-08-30T04:50:50.749Z,64.73
2022-08-30T04:53:17.335Z,64.30
2022-08-30T04:55:44.373Z,64.84
2022-08-30T04:58:11.110Z,64.47
2022-08-30T05:00:37.690Z,64.57
2022-08-30T05:03:04.579Z,64.25
2022-08-30T05:05:39.940Z,64.54
2022-08-30T05:08:11.877Z,65.01
2022-08-30T05:10:44.175Z,64.91
2022-08-30T05:13:11.343Z,64.92
2022-08-30T05:15:39.713Z,65.09
2022-08-30T05:18:07.814Z,65.00
2022-08-30T05:20:38.835Z,64.98
2022-08-30T05:23:06.085Z,64.70
2022-08-30T05:25:36.255Z,64.57
2022-08-30T05:28:02.939Z,64.58
2022-08-30T05:30:33.231Z,64.36
2022-08-30T05:32:59.891Z,64.03
2022-08-30T05:35:26.857Z,63.73
2022-08-30T05:37:53.737Z,64.26
2022-08-30T05:40:20.391Z,64.33
2022-08-30T05:42:47.234Z,64.19
2022-08-30T05:45:15.127Z,64.31
2022-08-30T05:47:41.708Z,63.71
2022-08-30T05:50:08.862Z,63.74
2022-08-30T05:52:37.224Z,63.92
2022-08-30T05:55:04.771Z,64.03
2022-08-30T05:57:35.794Z,63.72
2022-08-30T06:00:06.247Z,63.92
2022-08-30T06:02:32.997Z,63.90
2022-08-30T06:04:59.373Z,63.65
2022-08-30T06:07:26.544Z,63.67
2022-08-30T06:09:52.886Z,63.89
2022-08-30T06:12:19.290Z,64.01
2022-08-30T06:14:45.693Z,64.08
2022-08-30T06:17:12.213Z,63.92
2022-08-30T06:19:38.891Z,63.78
2022-08-30T06:22:05.323Z,64.83
2022-08-30T06:24:55.958Z,65.24
2022-08-30T06:27:18.207Z,65.03
2022-08-30T06:29:45.078Z,64.83
2022-08-30T06:32:11.407Z,64.87
2022-08-30T06:34:37.737Z,65.00
2022-08-30T06:37:04.149Z,64.78
2022-08-30T06:39:30.532Z,64.15
2022-08-30T06:41:56.866Z,63.73
2022-08-30T06:44:23.233Z,63.62
2022-08-30T06:46:49.865Z,63.23
2022-08-30T06:49:19.146Z,63.17
2022-08-30T06:51:45.523Z,63.08
2022-08-30T06:54:12.806Z,63.19
2022-08-30T06:56:55.318Z,63.42
2022-08-30T06:59:23.929Z,63.41
2022-08-30T07:01:50.500Z,63.06
2022-08-30T07:04:17.599Z,62.71
2022-08-30T07:06:44.007Z,62.09
2022-08-30T07:09:10.541Z,62.12
2022-08-30T07:11:37.526Z,61.59
2022-08-30T07:14:05.426Z,62.65
2022-08-30T07:16:32.901Z,63.34
2022-08-30T07:19:00.373Z,63.31
2022-08-30T07:21:32.462Z,63.17
2022-08-30T07:23:59.749Z,63.06
2022-08-30T07:26:38.754Z,63.04
2022-08-30T07:29:05.902Z,62.49
2022-08-30T07:31:34.373Z,62.64
2022-08-30T07:34:00.716Z,62.28
2022-08-30T07:36:27.139Z,62.69
2022-08-30T07:38:54.405Z,63.05
2022-08-30T07:41:27.732Z,62.61
2022-08-30T07:43:54.829Z,62.80
2022-08-30T07:46:22.504Z,62.42
2022-08-30T07:48:50.038Z,61.38
2022-08-30T07:51:19.399Z,62.12
2022-08-30T07:53:46.380Z,61.14
2022-08-30T07:56:13.202Z,62.03
2022-08-30T07:58:39.698Z,62.10
2022-08-30T08:01:08.485Z,61.70
2022-08-30T08:03:35.267Z,61.08
2022-08-30T08:06:06.372Z,61.32
2022-08-30T08:08:33.724Z,61.60
2022-08-30T08:11:10.163Z,61.38
2022-08-30T08:13:53.063Z,61.03
2022-08-30T08:16:25.425Z,60.41
2022-08-30T08:18:53.318Z,61.74
2022-08-30T08:21:22.259Z,61.51
2022-08-30T08:23:48.927Z,60.84
2022-08-30T08:26:15.434Z,60.64
2022-08-30T08:28:42.755Z,60.40
2022-08-30T08:31:22.084Z,60.21
2022-08-30T08:33:52.093Z,59.45
2022-08-30T08:36:18.533Z,59.35
2022-08-30T08:38:45.138Z,59.44
2022-08-30T08:41:25.570Z,58.86
2022-08-30T08:43:52.208Z,58.77
2022-08-30T08:46:45.473Z,58.92
2022-08-30T08:49:12.459Z,58.49
2022-08-30T08:51:59.382Z,59.21
2022-08-30T08:54:39.031Z,59.83
2022-08-30T08:57:05.904Z,58.88
2022-08-30T08:59:32.439Z,59.17
2022-08-30T09:02:03.191Z,58.34
2022-08-30T09:04:36.662Z,58.40
2022-08-30T09:07:08.555Z,58.40
2022-08-30T09:09:38.642Z,58.82
2022-08-30T09:12:08.129Z,59.00
2022-08-30T09:14:51.227Z,58.68
2022-08-30T09:17:22.712Z,58.43
2022-08-30T09:19:51.923Z,57.70
2022-08-30T09:22:38.338Z,57.81
2022-08-30T09:25:06.719Z,58.17
2022-08-30T09:27:42.324Z,58.12
2022-08-30T09:30:23.220Z,58.12
2022-08-30T09:32:57.325Z,58.12
2022-08-30T09:35:36.098Z,58.26
2022-08-30T09:38:09.118Z,58.03
2022-08-30T09:40:42.095Z,58.00
2022-08-30T09:43:19.218Z,58.24
2022-08-30T09:46:01.181Z,57.74
2022-08-30T09:48:33.658Z,58.13
2022-08-30T09:51:11.499Z,58.02
2022-08-30T09:54:07.190Z,57.60
2022-08-30T09:56:39.449Z,57.65
2022-08-30T09:59:05.813Z,57.33
2022-08-30T10:01:42.917Z,56.64
2022-08-30T10:04:25.550Z,56.87
2022-08-30T10:07:07.152Z,57.17
2022-08-30T10:09:43.288Z,56.66
2022-08-30T10:12:25.528Z,56.33
2022-08-30T10:15:25.643Z,56.49
2022-08-30T10:18:07.397Z,56.50
2022-08-30T10:20:47.634Z,56.79
2022-08-30T10:23:21.199Z,56.60
2022-08-30T10:25:54.198Z,56.12
2022-08-30T10:28:25.240Z,56.19
2022-08-30T10:31:02.546Z,56.19
2022-08-30T10:33:42.487Z,55.85
2022-08-30T10:36:11.541Z,56.38
2022-08-30T10:38:40.297Z,56.40
2022-08-30T10:41:26.863Z,55.66
2022-08-30T10:44:00.993Z,55.21
2022-08-30T10:46:27.277Z,55.09
2022-08-30T10:48:56.381Z,55.53
2022-08-30T10:51:35.833Z,55.18
2022-08-30T10:54:12.340Z,55.72
2022-08-30T10:56:47.644Z,55.07
2022-08-30T10:59:17.472Z,53.91
2022-08-30T11:02:03.498Z,53.94
2022-08-30T11:04:45.405Z,53.75
2022-08-30T11:07:26.958Z,53.77
2022-08-30T11:10:04.101Z,53.61
2022-08-30T11:12:53.083Z,53.20
2022-08-30T11:15:24.085Z,53.21
2022-08-30T11:17:58.822Z,53.13
2022-08-30T11:20:48.904Z,53.51
2022-08-30T11:23:18.337Z,53.58
2022-08-30T11:25:53.520Z,52.98
2022-08-30T11:28:36.651Z,52.52
2022-08-30T11:31:29.401Z,52.42
2022-08-30T11:33:59.434Z,52.27
2022-08-30T11:36:37.383Z,52.94
2022-08-30T11:39:07.543Z,52.93
2022-08-30T11:41:42.590Z,51.65
2022-08-30T11:44:21.633Z,52.12
2022-08-30T11:46:50.046Z,51.60
2022-08-30T11:49:19.435Z,51.74
2022-08-30T11:52:28.444Z,51.31
2022-08-30T11:55:23.156Z,50.45
2022-08-30T11:57:58.873Z,50.42
2022-08-30T12:00:39.589Z,49.76
2022-08-30T12:03:16.289Z,49.26
2022-08-30T12:05:42.775Z,49.83
2022-08-30T12:08:09.412Z,49.22
2022-08-30T12:10:41.344Z,49.10
2022-08-30T12:13:08.715Z,48.59
2022-08-30T12:15:57.975Z,49.30
2022-08-30T12:18:32.105Z,49.01
2022-08-30T12:21:20.121Z,48.71
2022-08-30T12:24:04.064Z,49.06
2022-08-30T12:26:34.168Z,48.54
2022-08-30T12:29:12.219Z,48.46
2022-08-30T12:31:46.476Z,49.03
2022-08-30T12:34:43.362Z,49.71
2022-08-30T12:37:24.953Z,49.20
2022-08-30T12:40:22.772Z,48.62
2022-08-30T12:42:53.845Z,47.74
2022-08-30T12:45:25.813Z,47.71
2022-08-30T12:48:07.303Z,46.86
2022-08-30T12:50:44.719Z,46.96
2022-08-30T12:53:14.271Z,45.81
2022-08-30T12:56:12.280Z,44.76
2022-08-30T12:58:47.632Z,45.13
2022-08-30T13:01:28.501Z,45.64
2022-08-30T13:04:13.685Z,45.38
2022-08-30T13:06:56.195Z,45.35
2022-08-30T13:09:32.382Z,45.50
2022-08-30T13:12:05.658Z,45.48
2022-08-30T13:14:35.181Z,45.68
2022-08-30T13:17:19.034Z,44.32
2022-08-30T13:20:07.042Z,43.85
2022-08-30T13:22:42.793Z,43.34
2022-08-30T13:25:11.548Z,42.86
2022-08-30T13:27:40.151Z,42.70
2022-08-30T13:30:14.630Z,42.54
2022-08-30T13:32:41.334Z,42.20
2022-08-30T13:35:08.728Z,41.61
2022-08-30T13:37:51.839Z,41.26
2022-08-30T13:40:20.477Z,40.77
2022-08-30T13:42:47.330Z,40.24
2022-08-30T13:48:01.634Z,41.28
2022-08-30T13:50:28.012Z,40.97
2022-08-30T13:52:54.350Z,41.47
2022-08-30T13:55:21.233Z,42.69
2022-08-30T13:57:56.027Z,42.69
2022-08-30T14:00:24.830Z,43.08
2022-08-30T14:02:57.693Z,43.39
2022-08-30T14:05:48.236Z,44.14
2022-08-30T14:11:12.485Z,43.55
2022-08-30T14:14:14.582Z,43.58
2022-08-30T14:16:28.031Z,44.04
2022-08-30T14:18:55.058Z,43.71
2022-08-30T14:21:24.661Z,43.76
2022-08-30T14:23:52.585Z,43.42
2022-08-30T14:26:24.751Z,42.17
2022-08-30T14:28:53.275Z,42.19
2022-08-30T14:31:20.263Z,41.94
2022-08-30T14:33:47.219Z,41.62
2022-08-30T14:36:15.886Z,42.77
2022-08-30T14:38:42.853Z,42.50
2022-08-30T14:41:10.595Z,41.83
2022-08-30T14:43:37.708Z,42.09
2022-08-30T14:46:05.639Z,41.65
2022-08-30T14:48:32.073Z,41.79
2022-08-30T14:50:58.511Z,41.42
2022-08-30T14:53:25.119Z,41.76
2022-08-30T14:55:51.491Z,41.71
2022-08-30T14:58:18.159Z,41.93
2022-08-30T15:00:53.712Z,41.63
2022-08-30T15:03:20.107Z,41.00
2022-08-30T15:05:52.966Z,40.78
2022-08-30T15:08:20.062Z,40.89
2022-08-30T15:10:47.367Z,40.91
2022-08-30T15:13:14.107Z,40.52
2022-08-30T15:15:42.600Z,40.97
2022-08-30T15:18:09.735Z,39.98
2022-08-30T15:20:36.505Z,39.23
2022-08-30T15:23:02.903Z,39.38
2022-08-30T15:25:31.481Z,39.91
2022-08-30T15:27:57.896Z,39.67
2022-08-30T15:30:24.248Z,40.08
2022-08-30T15:32:50.695Z,40.23
2022-08-30T15:35:17.113Z,39.72
2022-08-30T15:37:43.449Z,39.53
2022-08-30T15:40:10.845Z,39.01
2022-08-30T15:42:37.443Z,38.90
2022-08-30T15:45:04.572Z,37.96
2022-08-30T15:47:32.824Z,37.37
2022-08-30T15:50:02.931Z,37.17
2022-08-30T15:52:30.359Z,36.16
2022-08-30T15:54:56.817Z,35.51
2022-08-30T15:57:23.790Z,34.58
2022-08-30T15:59:50.306Z,34.22
2022-08-30T16:02:17.438Z,33.94
2022-08-30T16:04:44.629Z,33.21
2022-08-30T16:07:12.886Z,32.37
2022-08-30T16:09:40.293Z,31.66
2022-08-30T16:12:07.681Z,31.59
2022-08-30T16:14:36.668Z,31.32
2022-08-30T16:17:03.829Z,31.91
2022-08-30T16:19:31.847Z,31.80
2022-08-30T16:21:58.305Z,31.29
2022-08-30T16:24:25.801Z,31.87
2022-08-30T16:26:52.771Z,32.02
2022-08-30T16:29:19.245Z,32.12
2022-08-30T16:31:47.374Z,32.16
2022-08-30T16:34:16.287Z,31.70
2022-08-30T16:36:43.141Z,32.39
2022-08-30T16:39:12.668Z,32.10
2022-08-30T16:41:39.186Z,32.87
2022-08-30T16:44:06.274Z,33.65
2022-08-30T16:46:33.679Z,33.97
2022-08-30T16:49:02.143Z,34.09
2022-08-30T16:51:30.676Z,35.01
2022-08-30T16:54:00.148Z,35.54
2022-08-30T16:56:29.704Z,35.71
2022-08-30T16:59:02.095Z,36.29
2022-08-30T17:01:31.963Z,36.68
2022-08-30T17:03:58.953Z,37.33
2022-08-30T17:06:25.864Z,37.99
2022-08-30T17:08:55.768Z,38.16
2022-08-30T17:11:22.678Z,38.67
2022-08-30T17:13:49.058Z,38.49
2022-08-30T17:16:17.627Z,38.79
2022-08-30T17:18:50.065Z,39.34
2022-08-30T17:21:16.411Z,38.97
2022-08-30T17:23:44.901Z,39.13
2022-08-30T17:26:11.534Z,39.30
2022-08-30T17:28:40.733Z,39.90
2022-08-30T17:31:09.355Z,40.33
2022-08-30T17:33:39.101Z,40.46
2022-08-30T17:36:09.309Z,41.08
2022-08-30T17:38:36.940Z,42.07
2022-08-30T17:41:09.196Z,42.09
2022-08-30T17:43:37.555Z,43.03
2022-08-30T17:46:09.973Z,43.28
2022-08-30T17:48:38.013Z,44.27
2022-08-30T17:51:05.541Z,44.49
2022-08-30T17:53:32.625Z,44.46
2022-08-30T17:55:59.177Z,44.70
2022-08-30T17:58:26.634Z,44.42
2022-08-30T18:00:55.944Z,44.27
2022-08-30T18:03:22.427Z,44.90
2022-08-30T18:05:49.709Z,45.06
2022-08-30T18:08:16.240Z,44.33
2022-08-30T18:10:42.791Z,45.11
2022-08-30T18:13:09.384Z,45.63
2022-08-30T18:15:35.728Z,45.58
2022-08-30T18:18:02.248Z,45.71
2022-08-30T18:20:32.323Z,46.02
2022-08-30T18:22:58.754Z,45.86
2022-08-30T18:25:25.097Z,44.16
2022-08-30T18:27:58.067Z,45.55
2022-08-30T18:30:33.197Z,46.13
2022-08-30T18:33:00.568Z,47.59
2022-08-30T18:35:27.294Z,48.19
2022-08-30T18:37:53.853Z,48.44
2022-08-30T18:40:20.581Z,48.24
2022-08-30T18:42:47.568Z,47.61
2022-08-30T18:45:15.265Z,49.81
2022-08-30T18:47:42.262Z,50.36
2022-08-30T18:50:08.902Z,51.45
2022-08-30T18:52:35.956Z,51.04
2022-08-30T18:55:02.577Z,51.16
2022-08-30T18:57:28.997Z,51.33
2022-08-30T18:59:57.641Z,51.22
2022-08-30T19:02:27.564Z,50.90
2022-08-30T19:04:54.449Z,50.76
2022-08-30T19:07:21.449Z,50.34
2022-08-30T19:09:53.668Z,50.98
2022-08-30T19:12:20.166Z,51.13
2022-08-30T19:14:47.475Z,50.58
2022-08-30T19:17:14.039Z,52.97
2022-08-30T19:19:48.698Z,52.76
2022-08-30T19:22:20.672Z,52.79
2022-08-30T19:24:49.767Z,54.79
2022-08-30T19:27:17.753Z,55.49
2022-08-30T19:29:44.650Z,55.91
2022-08-30T19:32:11.907Z,55.79
2022-08-30T19:34:39.575Z,56.32
2022-08-30T19:37:05.968Z,56.12
2022-08-30T19:39:32.814Z,55.18
2022-08-30T19:41:59.220Z,55.41
2022-08-30T19:44:26.658Z,58.48
2022-08-30T19:46:53.391Z,58.71
2022-08-30T19:49:20.156Z,58.35
2022-08-30T19:51:48.018Z,58.96
2022-08-30T19:54:15.170Z,57.88
2022-08-30T19:56:43.729Z,57.82
2022-08-30T19:59:10.224Z,58.20
2022-08-30T20:01:37.132Z,57.22
2022-08-30T20:04:03.721Z,57.06
2022-08-30T20:06:31.510Z,57.35
2022-08-30T20:08:59.823Z,58.64
2022-08-30T20:11:27.544Z,60.04
2022-08-30T20:13:53.952Z,61.05
2022-08-30T20:16:20.280Z,67.48
2022-08-30T20:18:49.513Z,66.63
2022-08-30T20:21:16.119Z,66.38
2022-08-30T20:23:43.410Z,67.94
2022-08-30T20:26:12.563Z,70.68
2022-08-30T20:28:42.382Z,73.33
2022-08-30T20:31:10.721Z,74.62
2022-08-30T20:33:38.688Z,76.62
2022-08-30T20:36:07.270Z,76.59
2022-08-30T20:38:33.868Z,77.42
2022-08-30T20:41:02.490Z,77.06
2022-08-30T20:43:30.304Z,75.59
2022-08-30T20:45:56.803Z,76.52
2022-08-30T20:48:26.939Z,75.29
2022-08-30T20:50:53.273Z,72.71
2022-08-30T20:53:19.604Z,71.17
2022-08-30T20:55:47.355Z,72.43
2022-08-30T20:58:15.121Z,72.81
2022-08-30T21:00:45.585Z,73.05
2022-08-30T21:03:26.084Z,75.23
2022-08-30T21:05:55.208Z,76.12
2022-08-30T21:08:21.704Z,75.53
2022-08-30T21:10:48.091Z,75.03
2022-08-30T21:13:14.853Z,75.89
2022-08-30T21:15:45.612Z,76.13
2022-08-30T21:18:14.154Z,74.88
2022-08-30T21:20:41.086Z,73.67
2022-08-30T21:23:07.437Z,73.51
2022-08-30T21:25:34.081Z,76.32
2022-08-30T21:28:00.458Z,76.14
2022-08-30T21:30:26.986Z,75.29
2022-08-30T21:32:53.429Z,75.60
2022-08-30T21:35:38.295Z,74.15
2022-08-30T21:38:07.259Z,73.02
2022-08-30T21:40:33.664Z,72.41
2022-08-30T21:43:05.054Z,70.92
2022-08-30T21:45:32.127Z,70.74
2022-08-30T21:47:58.673Z,69.59
2022-08-30T21:50:25.191Z,69.51
2022-08-30T21:52:51.923Z,69.66
2022-08-30T21:55:18.923Z,69.12
2022-08-30T21:57:45.268Z,69.00
2022-08-30T22:00:18.587Z,68.53
2022-08-30T22:02:45.294Z,67.64
2022-08-30T22:05:15.809Z,67.11
2022-08-30T22:07:42.237Z,67.51
2022-08-30T22:10:10.979Z,66.99
2022-08-30T22:12:38.341Z,66.80
2022-08-30T22:15:08.417Z,66.49
2022-08-30T22:17:34.777Z,65.89
2022-08-30T22:20:01.130Z,65.97
2022-08-30T22:22:27.475Z,66.62
2022-08-30T22:24:53.824Z,66.39
2022-08-30T22:27:20.180Z,66.22
2022-08-30T22:29:47.171Z,67.23
2022-08-30T22:32:13.791Z,66.93
2022-08-30T22:34:40.447Z,66.71
2022-08-30T22:37:07.796Z,66.14
2022-08-30T22:39:34.377Z,67.04
2022-08-30T22:42:00.721Z,66.83
2022-08-30T22:44:27.213Z,66.60
2022-08-30T22:46:53.610Z,68.05
2022-08-30T22:49:20.353Z,68.70
2022-08-30T22:51:46.785Z,70.45
2022-08-30T22:54:13.127Z,69.96
2022-08-30T22:56:40.194Z,71.32
2022-08-30T22:59:06.683Z,70.30
2022-08-30T23:01:39.834Z,69.81
2022-08-30T23:04:07.734Z,69.61
2022-08-30T23:06:34.328Z,68.69
2022-08-30T23:09:00.733Z,67.95
2022-08-30T23:11:27.779Z,68.63
2022-08-30T23:13:55.811Z,67.85
2022-08-30T23:16:22.920Z,68.22
2022-08-30T23:18:49.893Z,67.81
2022-08-30T23:21:22.737Z,67.49
2022-08-30T23:24:10.357Z,67.62
2022-08-30T23:26:56.676Z,66.54
2022-08-30T23:29:42.449Z,66.12
2022-08-30T23:32:27.893Z,66.74
2022-08-30T23:35:12.714Z,67.17
2022-08-30T23:37:58.095Z,65.84
2022-08-30T23:40:43.246Z,66.47
2022-08-30T23:43:28.829Z,66.91
2022-08-30T23:46:19.001Z,66.53
2022-08-30T23:49:04.662Z,67.76
2022-08-30T23:51:49.616Z,70.87
2022-08-30T23:54:35.023Z,71.84
2022-08-30T23:57:19.779Z,70.52
